createdAt,value
2019-03-05T00:00:26.264Z,98834.00
2019-03-05T00:02:55.742Z,98841.00
2019-03-05T00:05:26.734Z,98832.00
2019-03-05T00:07:56.211Z,98842.00
2019-03-05T00:10:25.692Z,98840.00
2019-03-05T00:12:55.185Z,98840.00
2019-03-05T00:15:27.182Z,98849.00
2019-03-05T00:17:57.071Z,98845.00
2019-03-05T00:20:26.501Z,98857.00
2019-03-05T00:22:56.024Z,98852.00
2019-03-05T00:25:32.395Z,98860.00
2019-03-05T00:28:24.199Z,98852.00
2019-03-05T00:30:58.839Z,98857.00
2019-03-05T00:34:04.122Z,98856.00
2019-03-05T00:36:41.154Z,98865.00
2019-03-05T00:39:51.326Z,98867.00
2019-03-05T00:43:03.699Z,98876.00
2019-03-05T00:45:43.061Z,98890.00
2019-03-05T00:48:37.986Z,98893.00
2019-03-05T00:51:30.232Z,98900.00
2019-03-05T00:54:34.454Z,98911.00
2019-03-05T00:57:19.986Z,98900.00
2019-03-05T01:00:02.350Z,98918.00
2019-03-05T01:02:44.725Z,98919.00
2019-03-05T01:05:41.334Z,98929.00
2019-03-05T01:08:11.060Z,98923.00
2019-03-05T01:10:40.590Z,98934.00
2019-03-05T01:13:10.391Z,98940.00
2019-03-05T01:15:39.910Z,98948.00
2019-03-05T01:18:09.370Z,98950.00
2019-03-05T01:20:38.836Z,98951.00
2019-03-05T01:23:08.284Z,98954.00
2019-03-05T01:25:37.984Z,98958.00
2019-03-05T01:28:07.470Z,98956.00
2019-03-05T01:31:00.827Z,98956.00
2019-03-05T01:33:34.915Z,98958.00
2019-03-05T01:36:11.961Z,98959.00
2019-03-05T01:38:48.857Z,98966.00
2019-03-05T01:41:18.376Z,98964.00
2019-03-05T01:43:47.814Z,98962.00
2019-03-05T01:46:17.357Z,98968.00
2019-03-05T01:48:46.810Z,98974.00
2019-03-05T01:51:16.256Z,98957.00
2019-03-05T01:53:45.755Z,98981.00
2019-03-05T01:56:15.195Z,98970.00
2019-03-05T01:58:44.640Z,98986.00
2019-03-05T02:01:14.185Z,98986.00
2019-03-05T02:03:43.701Z,98990.00
2019-03-05T02:06:13.313Z,98990.00
2019-03-05T02:08:42.768Z,98988.00
2019-03-05T02:11:12.381Z,98994.00
2019-03-05T02:13:41.833Z,98980.00
2019-03-05T02:16:11.317Z,98991.00
2019-03-05T02:18:40.749Z,98989.00
2019-03-05T02:21:10.204Z,98990.00
2019-03-05T02:24:03.969Z,98997.00
2019-03-05T02:26:46.530Z,98990.00
2019-03-05T02:29:41.762Z,98991.00
2019-03-05T02:32:30.767Z,98993.00
2019-03-05T02:35:25.642Z,98990.00
2019-03-05T02:38:24.627Z,98987.00
2019-03-05T02:41:04.437Z,98985.00
2019-03-05T02:43:56.667Z,98990.00
2019-03-05T02:46:42.952Z,98989.00
2019-03-05T02:49:54.764Z,98994.00
2019-03-05T02:52:49.695Z,98990.00
2019-03-05T02:55:37.831Z,98989.00
2019-03-05T02:58:05.811Z,98996.00
2019-03-05T03:00:36.960Z,98996.00
2019-03-05T03:03:08.065Z,98998.00
2019-03-05T03:05:39.244Z,98987.00
2019-03-05T03:08:08.737Z,98996.00
2019-03-05T03:10:38.422Z,98996.00
2019-03-05T03:13:07.900Z,98994.00
2019-03-05T03:15:37.430Z,99002.00
2019-03-05T03:18:06.923Z,99001.00
2019-03-05T03:20:36.401Z,98996.00
2019-03-05T03:23:05.860Z,98999.00
2019-03-05T03:25:35.387Z,99008.00
2019-03-05T03:28:05.058Z,99000.00
2019-03-05T03:30:34.765Z,99001.00
2019-03-05T03:33:04.306Z,99000.00
2019-03-05T03:35:33.757Z,99000.00
2019-03-05T03:38:03.208Z,99001.00
2019-03-05T03:40:32.663Z,99008.00
2019-03-05T03:43:02.145Z,99008.00
2019-03-05T03:45:31.590Z,99005.00
2019-03-05T03:48:01.074Z,99008.00
2019-03-05T03:50:30.546Z,99000.00
2019-03-05T03:53:00.072Z,99005.00
2019-03-05T03:55:29.507Z,99004.00
2019-03-05T03:57:59.232Z,99009.00
2019-03-05T04:00:28.746Z,99011.00
2019-03-05T04:02:59.127Z,99009.00
2019-03-05T04:05:28.584Z,99012.00
2019-03-05T04:07:58.039Z,99008.00
2019-03-05T04:10:27.490Z,99012.00
2019-03-05T04:12:56.952Z,99006.00
2019-03-05T04:15:26.494Z,99006.00
2019-03-05T04:17:56.119Z,98988.00
2019-03-05T04:20:30.163Z,99001.00
2019-03-05T04:22:59.597Z,98988.00
2019-03-05T04:25:29.040Z,98995.00
2019-03-05T04:27:58.520Z,98990.00
2019-03-05T04:30:27.976Z,98991.00
2019-03-05T04:32:57.478Z,98986.00
2019-03-05T04:35:26.939Z,98987.00
2019-03-05T04:37:56.388Z,98990.00
2019-03-05T04:40:25.844Z,98978.00
2019-03-05T04:42:55.310Z,98979.00
2019-03-05T04:45:38.184Z,98991.00
2019-03-05T04:48:07.665Z,98987.00
2019-03-05T04:50:38.761Z,98985.00
2019-03-05T04:53:08.203Z,98986.00
2019-03-05T04:55:37.741Z,98989.00
2019-03-05T04:58:07.189Z,98987.00
2019-03-05T05:00:36.632Z,98998.00
2019-03-05T05:03:06.093Z,98997.00
2019-03-05T05:05:35.534Z,99002.00
2019-03-05T05:08:05.003Z,98999.00
2019-03-05T05:10:53.948Z,98999.00
2019-03-05T05:13:23.386Z,98997.00
2019-03-05T05:15:52.868Z,98998.00
2019-03-05T05:18:22.352Z,99002.00
2019-03-05T05:20:51.791Z,98992.00
2019-03-05T05:23:21.246Z,98997.00
2019-03-05T05:25:50.707Z,99009.00
2019-03-05T05:28:20.270Z,99006.00
2019-03-05T05:30:49.677Z,99011.00
2019-03-05T05:33:19.201Z,99013.00
2019-03-05T05:35:48.638Z,99003.00
2019-03-05T05:38:18.088Z,99011.00
2019-03-05T05:40:48.433Z,99010.00
2019-03-05T05:43:25.327Z,99005.00
2019-03-05T05:45:55.514Z,99019.00
2019-03-05T05:48:24.967Z,99011.00
2019-03-05T05:50:54.402Z,99024.00
2019-03-05T05:53:23.893Z,99006.00
2019-03-05T05:55:53.370Z,99007.00
2019-03-05T05:58:22.826Z,99014.00
2019-03-05T06:00:54.002Z,99015.00
2019-03-05T06:03:23.457Z,99016.00
2019-03-05T06:05:52.885Z,99015.00
2019-03-05T06:08:22.380Z,99020.00
2019-03-05T06:10:53.071Z,99027.00
2019-03-05T06:13:22.889Z,99028.00
2019-03-05T06:15:52.381Z,99027.00
2019-03-05T06:18:21.819Z,99023.00
2019-03-05T06:20:51.255Z,99038.00
2019-03-05T06:23:20.728Z,99036.00
2019-03-05T06:25:50.181Z,99034.00
2019-03-05T06:28:19.615Z,99036.00
2019-03-05T06:30:49.080Z,99036.00
2019-03-05T06:33:18.526Z,99047.00
2019-03-05T06:35:48.035Z,99037.00
2019-03-05T06:38:17.525Z,99048.00
2019-03-05T06:40:46.963Z,99041.00
2019-03-05T06:43:16.402Z,99040.00
2019-03-05T06:45:45.882Z,99056.00
2019-03-05T06:48:15.329Z,99069.00
2019-03-05T06:50:44.848Z,99042.00
2019-03-05T06:53:14.314Z,99061.00
2019-03-05T06:55:43.768Z,99052.00
2019-03-05T06:58:13.210Z,99072.00
2019-03-05T07:00:42.691Z,99069.00
2019-03-05T07:03:12.128Z,99080.00
2019-03-05T07:06:36.261Z,99078.00
2019-03-05T07:09:21.979Z,99088.00
2019-03-05T07:12:15.544Z,99083.00
2019-03-05T07:15:24.344Z,99086.00
2019-03-05T07:18:07.469Z,99092.00
2019-03-05T07:21:23.272Z,99092.00
2019-03-05T07:24:22.710Z,99101.00
2019-03-05T07:26:52.152Z,99097.00
2019-03-05T07:29:21.594Z,99085.00
2019-03-05T07:31:51.062Z,99091.00
2019-03-05T07:34:22.145Z,99094.00
2019-03-05T07:36:51.608Z,99097.00
2019-03-05T07:39:24.164Z,99079.00
2019-03-05T07:41:53.601Z,99085.00
2019-03-05T07:44:23.050Z,99100.00
2019-03-05T07:46:52.514Z,99094.00
2019-03-05T07:49:21.954Z,99109.00
2019-03-05T07:51:51.652Z,99103.00
2019-03-05T07:54:21.121Z,99117.00
2019-03-05T07:56:50.558Z,99113.00
2019-03-05T07:59:20.010Z,99131.00
2019-03-05T08:01:49.748Z,99130.00
2019-03-05T08:04:19.190Z,99133.00
2019-03-05T08:06:48.706Z,99131.00
2019-03-05T08:09:38.433Z,99127.00
2019-03-05T08:12:24.083Z,99123.00
2019-03-05T08:15:04.140Z,99126.00
2019-03-05T08:17:33.565Z,99137.00
2019-03-05T08:20:03.001Z,99128.00
2019-03-05T08:22:32.457Z,99140.00
2019-03-05T08:25:01.905Z,99135.00
2019-03-05T08:27:31.353Z,99151.00
2019-03-05T08:30:00.830Z,99147.00
2019-03-05T08:32:30.364Z,99147.00
2019-03-05T08:34:59.808Z,99150.00
2019-03-05T08:37:29.304Z,99161.00
2019-03-05T08:39:58.751Z,99156.00
2019-03-05T08:42:28.192Z,99151.00
2019-03-05T08:44:59.237Z,99152.00
2019-03-05T08:47:28.677Z,99156.00
2019-03-05T08:49:58.202Z,99163.00
2019-03-05T08:52:27.667Z,99159.00
2019-03-05T08:54:57.113Z,99163.00
2019-03-05T08:57:26.605Z,99166.00
2019-03-05T08:59:56.038Z,99177.00
2019-03-05T09:02:25.486Z,99198.00
2019-03-05T09:04:54.966Z,99184.00
2019-03-05T09:07:24.453Z,99187.00
2019-03-05T09:09:53.958Z,99197.00
2019-03-05T09:12:23.410Z,99197.00
2019-03-05T09:14:52.886Z,99200.00
2019-03-05T09:17:22.406Z,99196.00
2019-03-05T09:19:51.848Z,99190.00
2019-03-05T09:22:21.720Z,99207.00
2019-03-05T09:24:51.161Z,99196.00
2019-03-05T09:27:20.616Z,99202.00
2019-03-05T09:29:50.091Z,99197.00
2019-03-05T09:32:19.535Z,99213.00
2019-03-05T09:34:48.982Z,99194.00
2019-03-05T09:37:18.452Z,99204.00
2019-03-05T09:39:47.893Z,99204.00
2019-03-05T09:42:17.424Z,99217.00
2019-03-05T09:44:46.885Z,99196.00
2019-03-05T09:47:16.353Z,99215.00
2019-03-05T09:49:45.755Z,99208.00
2019-03-05T09:52:15.219Z,99204.00
2019-03-05T09:54:44.656Z,99216.00
2019-03-05T09:57:14.108Z,99200.00
2019-03-05T09:59:43.648Z,99209.00
2019-03-05T10:02:13.089Z,99231.00
2019-03-05T10:04:42.593Z,99228.00
2019-03-05T10:07:19.011Z,99233.00
2019-03-05T10:09:43.409Z,99238.00
2019-03-05T10:12:12.853Z,99220.00
2019-03-05T10:14:42.336Z,99220.00
2019-03-05T10:17:11.773Z,99240.00
2019-03-05T10:19:41.289Z,99228.00
2019-03-05T10:22:11.042Z,99223.00
2019-03-05T10:24:40.488Z,99247.00
2019-03-05T10:27:12.729Z,99243.00
2019-03-05T10:29:42.190Z,99249.00
2019-03-05T10:32:11.644Z,99243.00
2019-03-05T10:34:41.092Z,99244.00
2019-03-05T10:37:17.607Z,99240.00
2019-03-05T10:39:41.769Z,99239.00
2019-03-05T10:42:11.225Z,99248.00
2019-03-05T10:44:40.693Z,99250.00
2019-03-05T10:47:10.475Z,99255.00
2019-03-05T10:49:39.981Z,99250.00
2019-03-05T10:52:09.459Z,99268.00
2019-03-05T10:54:38.893Z,99258.00
2019-03-05T10:57:08.851Z,99262.00
2019-03-05T10:59:38.330Z,99271.00
2019-03-05T11:02:07.774Z,99273.00
2019-03-05T11:04:45.515Z,99263.00
2019-03-05T11:07:08.645Z,99263.00
2019-03-05T11:09:38.094Z,99277.00
2019-03-05T11:12:07.617Z,99261.00
2019-03-05T11:14:37.147Z,99241.00
2019-03-05T11:17:06.600Z,99247.00
2019-03-05T11:19:36.115Z,99255.00
2019-03-05T11:22:06.056Z,99257.00
2019-03-05T11:24:35.499Z,99258.00
2019-03-05T11:27:04.935Z,99268.00
2019-03-05T11:29:34.405Z,99254.00
2019-03-05T11:32:03.910Z,99265.00
2019-03-05T11:34:33.339Z,99278.00
2019-03-05T11:37:02.814Z,99278.00
2019-03-05T11:39:32.430Z,99291.00
2019-03-05T11:42:01.881Z,99299.00
2019-03-05T11:44:31.350Z,99306.00
2019-03-05T11:47:00.789Z,99294.00
2019-03-05T11:49:30.222Z,99307.00
2019-03-05T11:51:59.697Z,99311.00
2019-03-05T11:54:29.134Z,99314.00
2019-03-05T11:56:58.571Z,99306.00
2019-03-05T11:59:28.115Z,99306.00
2019-03-05T12:01:57.563Z,99319.00
2019-03-05T12:04:27.034Z,99307.00
2019-03-05T12:06:56.505Z,99314.00
2019-03-05T12:09:25.964Z,99323.00
2019-03-05T12:11:55.401Z,99313.00
2019-03-05T12:14:24.899Z,99309.00
2019-03-05T12:16:54.604Z,99325.00
2019-03-05T12:19:24.058Z,99317.00
2019-03-05T12:21:53.533Z,99318.00
2019-03-05T12:24:24.155Z,99312.00
2019-03-05T12:26:55.569Z,99307.00
2019-03-05T12:29:25.025Z,99297.00
2019-03-05T12:31:54.468Z,99294.00
2019-03-05T12:34:23.897Z,99300.00
2019-03-05T12:36:53.364Z,99294.00
2019-03-05T12:39:23.179Z,99306.00
2019-03-05T12:41:52.699Z,99295.00
2019-03-05T12:44:22.170Z,99288.00
2019-03-05T12:46:51.612Z,99281.00
2019-03-05T12:49:21.040Z,99285.00
2019-03-05T12:51:50.517Z,99288.00
2019-03-05T12:54:19.954Z,99282.00
2019-03-05T12:56:49.383Z,99287.00
2019-03-05T12:59:18.879Z,99279.00
2019-03-05T13:01:48.306Z,99289.00
2019-03-05T13:04:17.762Z,99292.00
2019-03-05T13:06:47.235Z,99273.00
2019-03-05T13:09:19.566Z,99276.00
2019-03-05T13:11:49.956Z,99284.00
2019-03-05T13:14:20.392Z,99275.00
2019-03-05T13:16:49.838Z,99281.00
2019-03-05T13:19:19.281Z,99280.00
2019-03-05T13:21:50.235Z,99284.00
2019-03-05T13:24:19.788Z,99292.00
2019-03-05T13:26:49.229Z,99279.00
2019-03-05T13:29:19.218Z,99281.00
2019-03-05T13:31:49.925Z,99282.00
2019-03-05T13:34:19.361Z,99282.00
2019-03-05T13:36:50.562Z,99284.00
2019-03-05T13:39:22.216Z,99276.00
2019-03-05T13:41:53.893Z,99261.00
2019-03-05T13:44:33.915Z,99284.00
2019-03-05T13:47:04.743Z,99273.00
2019-03-05T13:49:59.801Z,99272.00
2019-03-05T13:52:57.722Z,99265.00
2019-03-05T13:55:31.805Z,99263.00
2019-03-05T13:58:34.572Z,99262.00
2019-03-05T14:01:07.295Z,99267.00
2019-03-05T14:03:41.365Z,99258.00
2019-03-05T14:06:33.489Z,99276.00
2019-03-05T14:09:16.089Z,99282.00
2019-03-05T14:11:50.046Z,99280.00
2019-03-05T14:14:25.191Z,99284.00
2019-03-05T14:17:13.434Z,99279.00
2019-03-05T14:19:42.959Z,99289.00
2019-03-05T14:22:12.391Z,99294.00
2019-03-05T14:24:42.018Z,99313.00
2019-03-05T14:27:11.474Z,99316.00
2019-03-05T14:29:40.983Z,99383.00
2019-03-05T14:32:11.131Z,99391.00
2019-03-05T14:34:40.573Z,99409.00
2019-03-05T14:37:10.010Z,99391.00
2019-03-05T14:39:39.494Z,99406.00
2019-03-05T14:42:10.251Z,99410.00
2019-03-05T14:44:40.498Z,99425.00
2019-03-05T14:47:10.186Z,99437.00
2019-03-05T14:49:39.598Z,99444.00
2019-03-05T14:52:09.045Z,99483.00
2019-03-05T14:54:38.618Z,99483.00
2019-03-05T14:57:08.076Z,99475.00
2019-03-05T14:59:37.503Z,99485.00
2019-03-05T15:02:07.433Z,99473.00
2019-03-05T15:04:36.954Z,99482.00
2019-03-05T15:07:06.436Z,99489.00
2019-03-05T15:09:35.902Z,99478.00
2019-03-05T15:12:05.423Z,99477.00
2019-03-05T15:14:34.983Z,99474.00
2019-03-05T15:17:04.782Z,99479.00
2019-03-05T15:19:34.726Z,99481.00
2019-03-05T15:22:05.186Z,99469.00
2019-03-05T15:24:34.620Z,99480.00
2019-03-05T15:27:04.120Z,99464.00
2019-03-05T15:29:33.620Z,99463.00
2019-03-05T15:32:03.215Z,99471.00
2019-03-05T15:34:32.809Z,99481.00
2019-03-05T15:37:02.283Z,99486.00
2019-03-05T15:39:31.933Z,99498.00
2019-03-05T15:42:01.463Z,99497.00
2019-03-05T15:44:30.934Z,99497.00
2019-03-05T15:47:00.543Z,99499.00
2019-03-05T15:49:30.016Z,99508.00
2019-03-05T15:51:59.479Z,99500.00
2019-03-05T15:54:28.921Z,99499.00
2019-03-05T15:56:58.361Z,99491.00
2019-03-05T15:59:27.869Z,99479.00
2019-03-05T16:01:57.459Z,99469.00
2019-03-05T16:04:26.893Z,99465.00
2019-03-05T16:06:56.398Z,99462.00
2019-03-05T16:09:25.847Z,99460.00
2019-03-05T16:11:55.283Z,99460.00
2019-03-05T16:14:24.778Z,99470.00
2019-03-05T16:16:54.231Z,99461.00
2019-03-05T16:19:24.237Z,99472.00
2019-03-05T16:21:53.731Z,99472.00
2019-03-05T16:24:23.170Z,99479.00
2019-03-05T16:26:56.819Z,99483.00
2019-03-05T16:29:24.004Z,99483.00
2019-03-05T16:31:58.099Z,99485.00
2019-03-05T16:34:29.181Z,99497.00
2019-03-05T16:37:02.054Z,99495.00
2019-03-05T16:39:36.035Z,99491.00
2019-03-05T16:42:07.207Z,99492.00
2019-03-05T16:44:44.055Z,99493.00
2019-03-05T16:47:30.733Z,99505.00
2019-03-05T16:50:01.857Z,99499.00
2019-03-05T16:52:32.935Z,99514.00
2019-03-05T16:55:04.043Z,99521.00
2019-03-05T16:57:46.901Z,99516.00
2019-03-05T17:00:20.757Z,99515.00
2019-03-05T17:03:00.690Z,99525.00
2019-03-05T17:05:32.217Z,99535.00
2019-03-05T17:08:18.174Z,99539.00
2019-03-05T17:11:07.713Z,99549.00
2019-03-05T17:13:37.165Z,99560.00
2019-03-05T17:16:06.727Z,99563.00
2019-03-05T17:18:36.180Z,99562.00
2019-03-05T17:21:05.713Z,99581.00
2019-03-05T17:23:35.303Z,99596.00
2019-03-05T17:26:05.221Z,99599.00
2019-03-05T17:28:34.661Z,99591.00
2019-03-05T17:31:04.310Z,99589.00
2019-03-05T17:33:33.783Z,99604.00
2019-03-05T17:36:03.247Z,99593.00
2019-03-05T17:38:32.677Z,99600.00
2019-03-05T17:41:02.132Z,99617.00
2019-03-05T17:43:31.672Z,99625.00
2019-03-05T17:46:01.106Z,99631.00
2019-03-05T17:48:31.134Z,99624.00
2019-03-05T17:51:00.620Z,99626.00
2019-03-05T17:53:30.333Z,99609.00
2019-03-05T17:55:59.822Z,99620.00
2019-03-05T17:58:29.269Z,99624.00
2019-03-05T18:00:58.703Z,99622.00
2019-03-05T18:03:28.235Z,99617.00
2019-03-05T18:05:57.676Z,99609.00
2019-03-05T18:08:27.132Z,99617.00
2019-03-05T18:10:56.621Z,99614.00
2019-03-05T18:13:26.071Z,99623.00
2019-03-05T18:15:55.514Z,99620.00
2019-03-05T18:18:25.078Z,99615.00
2019-03-05T18:20:54.594Z,99608.00
2019-03-05T18:23:24.041Z,99613.00
2019-03-05T18:25:53.538Z,99602.00
2019-03-05T18:28:22.975Z,99611.00
2019-03-05T18:30:52.527Z,99615.00
2019-03-05T18:33:21.995Z,99614.00
2019-03-05T18:35:51.434Z,99625.00
2019-03-05T18:38:21.051Z,99621.00
2019-03-05T18:40:50.805Z,99628.00
2019-03-05T18:43:20.344Z,99631.00
2019-03-05T18:45:49.774Z,99638.00
2019-03-05T18:48:19.258Z,99644.00
2019-03-05T18:50:48.704Z,99649.00
2019-03-05T18:53:18.334Z,99640.00
2019-03-05T18:55:48.454Z,99658.00
2019-03-05T18:58:17.916Z,99665.00
2019-03-05T19:00:47.360Z,99678.00
2019-03-05T19:03:19.544Z,99673.00
2019-03-05T19:05:49.439Z,99678.00
2019-03-05T19:08:18.891Z,99681.00
2019-03-05T19:10:48.373Z,99675.00
2019-03-05T19:13:20.133Z,99683.00
2019-03-05T19:16:09.125Z,99682.00
2019-03-05T19:18:40.053Z,99694.00
2019-03-05T19:21:09.508Z,99697.00
2019-03-05T19:23:39.269Z,99689.00
2019-03-05T19:26:09.435Z,99696.00
2019-03-05T19:28:38.884Z,99699.00
2019-03-05T19:31:08.391Z,99710.00
2019-03-05T19:33:38.102Z,99714.00
2019-03-05T19:36:07.678Z,99717.00
2019-03-05T19:38:37.146Z,99715.00
2019-03-05T19:41:06.827Z,99715.00
2019-03-05T19:43:36.267Z,99726.00
2019-03-05T19:46:05.740Z,99718.00
2019-03-05T19:48:35.187Z,99719.00
2019-03-05T19:51:07.006Z,99723.00
2019-03-05T19:53:38.610Z,99722.00
2019-03-05T19:56:08.238Z,99723.00
2019-03-05T19:58:37.854Z,99728.00
2019-03-05T20:01:11.772Z,99730.00
2019-03-05T20:03:41.269Z,99743.00
2019-03-05T20:06:10.674Z,99735.00
2019-03-05T20:08:40.579Z,99748.00
2019-03-05T20:11:10.109Z,99753.00
2019-03-05T20:13:39.765Z,99756.00
2019-03-05T20:16:09.474Z,99763.00
2019-03-05T20:18:38.957Z,99768.00
2019-03-05T20:21:08.878Z,99772.00
2019-03-05T20:23:38.324Z,99781.00
2019-03-05T20:26:07.971Z,99786.00
2019-03-05T20:28:37.424Z,99779.00
2019-03-05T20:31:06.902Z,99785.00
2019-03-05T20:33:36.520Z,99789.00
2019-03-05T20:36:06.202Z,99798.00
2019-03-05T20:38:35.677Z,99797.00
2019-03-05T20:41:05.123Z,99796.00
2019-03-05T20:43:34.562Z,99797.00
2019-03-05T20:46:08.733Z,99819.00
2019-03-05T20:48:38.174Z,99823.00
2019-03-05T20:51:07.615Z,99823.00
2019-03-05T20:53:37.093Z,99827.00
2019-03-05T20:56:06.737Z,99825.00
2019-03-05T20:58:36.138Z,99825.00
2019-03-05T21:01:07.278Z,99833.00
2019-03-05T21:03:36.861Z,99842.00
2019-03-05T21:06:06.572Z,99844.00
2019-03-05T21:08:36.321Z,99849.00
2019-03-05T21:11:07.565Z,99853.00
2019-03-05T21:13:37.009Z,99858.00
2019-03-05T21:16:06.651Z,99862.00
2019-03-05T21:18:36.097Z,99855.00
2019-03-05T21:21:05.538Z,99871.00
2019-03-05T21:23:35.013Z,99877.00
2019-03-05T21:26:04.525Z,99883.00
2019-03-05T21:28:33.971Z,99891.00
2019-03-05T21:31:03.760Z,99900.00
2019-03-05T21:33:34.875Z,99910.00
2019-03-05T21:36:04.384Z,99931.00
2019-03-05T21:38:33.861Z,99925.00
2019-03-05T21:41:03.297Z,99926.00
2019-03-05T21:43:33.594Z,99930.00
2019-03-05T21:46:13.812Z,99929.00
2019-03-05T21:48:44.540Z,99934.00
2019-03-05T21:51:15.067Z,99930.00
2019-03-05T21:53:44.540Z,99921.00
2019-03-05T21:56:13.980Z,99932.00
2019-03-05T21:58:43.429Z,99929.00
2019-03-05T22:01:12.904Z,99941.00
2019-03-05T22:03:42.364Z,99953.00
2019-03-05T22:06:11.811Z,99951.00
2019-03-05T22:08:41.458Z,99947.00
2019-03-05T22:11:10.899Z,99954.00
2019-03-05T22:13:40.343Z,99956.00
2019-03-05T22:16:09.836Z,99961.00
2019-03-05T22:18:39.271Z,99967.00
2019-03-05T22:21:08.721Z,99962.00
2019-03-05T22:23:38.183Z,99966.00
2019-03-05T22:26:07.702Z,99967.00
2019-03-05T22:28:37.421Z,99969.00
2019-03-05T22:31:06.907Z,99965.00
2019-03-05T22:33:36.349Z,99975.00
2019-03-05T22:36:05.788Z,99991.00
2019-03-05T22:38:35.262Z,99980.00
2019-03-05T22:41:05.029Z,99979.00
2019-03-05T22:43:34.470Z,99991.00
2019-03-05T22:46:03.934Z,99999.00
2019-03-05T22:48:33.375Z,99991.00
2019-03-05T22:51:02.902Z,99993.00
2019-03-05T22:53:32.379Z,100004.00
2019-03-05T22:56:01.838Z,100000.00
2019-03-05T22:58:31.288Z,100013.00
2019-03-05T23:01:09.905Z,100017.00
2019-03-05T23:03:41.229Z,100012.00
2019-03-05T23:06:12.962Z,100021.00
2019-03-05T23:08:42.505Z,100020.00
2019-03-05T23:11:12.031Z,100029.00
2019-03-05T23:13:42.192Z,100028.00
2019-03-05T23:16:13.073Z,100034.00
2019-03-05T23:18:42.529Z,100030.00
2019-03-05T23:21:11.987Z,100029.00
2019-03-05T23:23:41.544Z,100040.00
2019-03-05T23:26:11.526Z,100035.00
2019-03-05T23:29:25.932Z,100032.00
2019-03-05T23:31:57.535Z,100036.00
2019-03-05T23:34:27.559Z,100034.00
2019-03-05T23:36:57.011Z,100045.00
2019-03-05T23:39:26.459Z,100046.00
2019-03-05T23:41:56.222Z,100052.00
2019-03-05T23:44:25.667Z,100052.00
2019-03-05T23:46:55.119Z,100059.00
2019-03-05T23:49:24.605Z,100066.00
2019-03-05T23:51:54.054Z,100068.00
2019-03-05T23:54:23.689Z,100073.00
2019-03-05T23:56:53.181Z,100068.00
2019-03-05T23:59:22.627Z,100076.00
